Portada
METAR-TAF:

METAR-TAF

Aeropuertos :

Chitá, Rusia

Aeropuerto de Chitá-Kadala

latitud: 52-05N, longitud: 113-29E, altitud: 685 m

Observación

El informe se hizo hace 43 minutos, a las 22:30 UTC
Viento 4 kt del sur
Temperatura -14°C
Humedad 78%
Presión 1020 hPa
Visibilidad: 7000 m
Nubes dispersas a una altura de 3300 ft, Cumulonimbus.
chaparrones de nieve

METAR: UIAA 172230Z 17002MPS 7000 -SHSN SCT033CB M14/M17 Q1020 R29/490060 NOSIG RMK QFE706/0942

Hora: 08:13 (23:13 UTC)

Pronóstico

El informe se hizo hace 3 horas y 13 minutos, a las 20:00 UTC
Pronóstico válido del 17 a las 21 UTC al 18 a las 21 UTC
Viento 6 kt del oeste-noroeste con ráfagas de 17 kt
Visibilidad 10 km o más
Nubes dispersas a una altura de 3000 ft, Cumulonimbus.

TAF: UIAA 172000Z 1721/1821 29003G09MPS 9999 SCT030CB

Observaciones y pronósticos meteorológicos de más de 4000 aeropuertos (mensajes METAR y TAF).

Los puntos amarillos y rojos representan las estaciones disponibles.

Ponga el ratón en el punto deseado para ver el nombre de la estación.

Haga clic para ver las observaciones y los pronósticos meteorológicos.

Para cambiar el mapa : haga clic en los botones verdes con una cruz de color negro para hacer un zoom, en el botón verde con un guión para alejar o en las flechas verdes para mapas adyacentes.


METAR-TAF: